Vidfoss — V2QK4 — position and weather

sailwx.info

Track history (hours):
 
Tides and Currents Weather Stations Pressure Air Temp Water Temp Dewpoint Dewpoint Depression Visibility Wind Speed Wind Dir Waves Ship Positions

Vidfoss

Last reported at 2016-Feb-10 06:17 UTC. Time now 2016-Feb-11 12:57 UTC.
Position N 68°59' E 017°12'.

Length 93 m; draft 5 m.

Type: Cargo ship. MMSI: 305846000.

Date/timePositionNaut miles runAvg speedWind from/ knotsBaromVisibWave heightAir tempDewpointWater temp
2016-Feb-10 06:17N 68°59' E 017°12'912.1
2016-Feb-10 05:33N 69°06' E 017°28'1312.6
2016-Feb-10 04:33N 69°11' E 018°00'1 0.0
2016-Feb-08 19:33N 69°12' E 018°01'1212.3
2016-Feb-08 18:33N 69°06' E 017°31'117 5.3
2016-Feb-07 20:32N 67°33' E 014°21'1111.7
2016-Feb-07 19:33N 67°21' E 014°22'1212.2
2016-Feb-07 18:32N 67°11' E 014°04'1412.1
2016-Feb-07 17:24N 67°00' E 013°41'11911.9
2016-Feb-07 07:28N 65°10' E 011°51'1112.3
2016-Feb-07 06:34N 65°00' E 011°39'1211.7
2016-Feb-07 05:34N 64°53' E 011°18'8 7.6
2016-Feb-07 04:34N 64°47' E 011°05'80 8.9
2016-Feb-06 19:33N 63°40' E 009°29'1211.7
2016-Feb-06 18:34N 63°31' E 009°11'241 8.6
2016-Feb-05 14:30N 59°54' E 005°32'1111.6
2016-Feb-05 13:33N 59°43' E 005°27'3411.4
2016-Feb-05 10:33N 59°09' E 005°21'1212.6
2016-Feb-05 09:33N 58°56' E 005°21'1212.1
2016-Feb-05 08:33N 58°44' E 005°25'1612.4
2016-Feb-05 07:18N 58°31' E 005°40'912.4
2016-Feb-05 06:33N 58°25' E 005°53'4 3.9
2016-Feb-05 05:34N 58°27' E 005°59'0 0.0
2016-Feb-05 04:34N 58°27' E 005°59'0 0.0
2016-Feb-05 03:33N 58°27' E 005°59'0 0.0
2016-Feb-05 02:33N 58°27' E 005°59'1 0.6
2016-Feb-05 01:33N 58°26' E 005°59'25410.6
2016-Feb-04 01:31N 54°14' E 005°10'10 9.7
2016-Feb-04 00:32N 54°04' E 005°08'1010.4
2016-Feb-03 23:33N 53°54' E 005°02'64 9.9
2016-Feb-03 17:05N 52°54' E 004°27'5 8.8
2016-Feb-03 16:33N 52°49' E 004°28'9 8.8
2016-Feb-03 15:33N 52°41' E 004°29'9 9.1
2016-Feb-03 14:33N 52°32' E 004°30'5 5.3
2016-Feb-03 13:33N 52°28' E 004°36'1 1.1
2016-Feb-03 12:33N 52°28' E 004°38'1 1.3
2016-Feb-03 11:33N 52°28' E 004°40'0 0.0
2016-Feb-03 10:33N 52°28' E 004°40'0 0.0
2016-Feb-03 09:33N 52°28' E 004°40'0 0.0
2016-Feb-03 08:33N 52°28' E 004°40'0 0.0
2016-Feb-03 07:33N 52°28' E 004°40'0 0.0
2016-Feb-03 06:33N 52°28' E 004°40'0 0.0
2016-Feb-03 05:33N 52°28' E 004°40'0 0.0
2016-Feb-03 04:33N 52°28' E 004°40'0 0.0
2016-Feb-03 03:33N 52°28' E 004°40'0 0.0
2016-Feb-03 02:33N 52°28' E 004°40'0 0.0
2016-Feb-03 01:33N 52°28' E 004°40'0 0.0
2016-Feb-03 00:33N 52°28' E 004°40'0 0.0
2016-Feb-02 23:33N 52°28' E 004°40'0 0.0
2016-Feb-02 22:33N 52°28' E 004°40'0 0.0
2016-Feb-02 21:33N 52°28' E 004°40'0 0.0
2016-Feb-02 20:33N 52°28' E 004°40'0 0.0
2016-Feb-02 19:33N 52°28' E 004°40'0 0.0
2016-Feb-02 18:33N 52°28' E 004°40'0 0.0
2016-Feb-02 17:33N 52°28' E 004°40'0 0.0
2016-Feb-02 16:33N 52°28' E 004°40'0 0.0
2016-Feb-02 15:33N 52°28' E 004°40'0 0.0
2016-Feb-02 14:33N 52°28' E 004°40'0 0.0
2016-Feb-02 13:33N 52°28' E 004°40'0 0.0
2016-Feb-02 12:33N 52°28' E 004°40'0 0.0
2016-Feb-02 11:33N 52°28' E 004°40'0 0.0
2016-Feb-02 10:33N 52°28' E 004°40'0 0.0
2016-Feb-02 09:33N 52°28' E 004°40'0 0.0
2016-Feb-02 08:33N 52°28' E 004°40'0 0.0
2016-Feb-02 07:33N 52°28' E 004°40'0 0.0
2016-Feb-02 06:33N 52°28' E 004°40'0 0.0
2016-Feb-02 05:33N 52°28' E 004°40'0 0.0
2016-Feb-02 04:33N 52°28' E 004°40'0 0.0
2016-Feb-02 03:33N 52°28' E 004°40'0 0.0
2016-Feb-02 02:33N 52°28' E 004°40'0 0.0
2016-Feb-02 01:33N 52°28' E 004°40'0 0.0
2016-Feb-02 00:33N 52°28' E 004°40'0 0.0
2016-Feb-01 23:33N 52°28' E 004°40'0 0.0
2016-Feb-01 22:33N 52°28' E 004°40'0 0.0
2016-Feb-01 21:33N 52°28' E 004°40'0 0.0
2016-Feb-01 20:33N 52°28' E 004°40'0 0.0
2016-Feb-01 19:33N 52°28' E 004°40'0 0.0
2016-Feb-01 18:33N 52°28' E 004°40'0 0.0
2016-Feb-01 17:33N 52°28' E 004°40'0 0.0
2016-Feb-01 16:33N 52°28' E 004°40'0 0.3
2016-Feb-01 15:33N 52°28' E 004°40'4 4.3
2016-Feb-01 14:33N 52°28' E 004°32'6 5.7
2016-Feb-01 13:33N 52°33' E 004°30'8 7.7
2016-Feb-01 12:32N 52°41' E 004°30'8 7.1
2016-Feb-01 11:28N 52°49' E 004°31'8 6.4
2016-Feb-01 10:12N 52°57' E 004°32'81 9.3
2016-Feb-01 01:26N 54°16' E 005°03'  
Track history (hours):
 
Tides and Currents Weather Stations Pressure Air Temp Water Temp Dewpoint Dewpoint Depression Visibility Wind Speed Wind Dir Waves Ship Positions

Vidfoss

Last reported at 2016-Feb-10 06:17 UTC. Time now 2016-Feb-11 12:57 UTC.
Position N 68°59' E 017°12'.

Length 93 m; draft 5 m.

Type: Cargo ship. MMSI: 305846000.

Date/timePositionNaut miles runAvg speedWind from/ knotsBaromVisibWave heightAir tempDewpointWater temp
2016-Feb-10 06:17N 68°59' E 017°12'912.1
2016-Feb-10 05:33N 69°06' E 017°28'1312.6
2016-Feb-10 04:33N 69°11' E 018°00'1 0.0
2016-Feb-08 19:33N 69°12' E 018°01'1212.3
2016-Feb-08 18:33N 69°06' E 017°31'117 5.3
2016-Feb-07 20:32N 67°33' E 014°21'1111.7
2016-Feb-07 19:33N 67°21' E 014°22'1212.2
2016-Feb-07 18:32N 67°11' E 014°04'1412.1
2016-Feb-07 17:24N 67°00' E 013°41'11911.9
2016-Feb-07 07:28N 65°10' E 011°51'1112.3
2016-Feb-07 06:34N 65°00' E 011°39'1211.7
2016-Feb-07 05:34N 64°53' E 011°18'8 7.6
2016-Feb-07 04:34N 64°47' E 011°05'80 8.9
2016-Feb-06 19:33N 63°40' E 009°29'1211.7
2016-Feb-06 18:34N 63°31' E 009°11'241 8.6
2016-Feb-05 14:30N 59°54' E 005°32'1111.6
2016-Feb-05 13:33N 59°43' E 005°27'3411.4
2016-Feb-05 10:33N 59°09' E 005°21'1212.6
2016-Feb-05 09:33N 58°56' E 005°21'1212.1
2016-Feb-05 08:33N 58°44' E 005°25'1612.4
2016-Feb-05 07:18N 58°31' E 005°40'912.4
2016-Feb-05 06:33N 58°25' E 005°53'4 3.9
2016-Feb-05 05:34N 58°27' E 005°59'0 0.0
2016-Feb-05 04:34N 58°27' E 005°59'0 0.0
2016-Feb-05 03:33N 58°27' E 005°59'0 0.0
2016-Feb-05 02:33N 58°27' E 005°59'1 0.6
2016-Feb-05 01:33N 58°26' E 005°59'25410.6
2016-Feb-04 01:31N 54°14' E 005°10'10 9.7
2016-Feb-04 00:32N 54°04' E 005°08'1010.4
2016-Feb-03 23:33N 53°54' E 005°02'64 9.9
2016-Feb-03 17:05N 52°54' E 004°27'5 8.8
2016-Feb-03 16:33N 52°49' E 004°28'9 8.8
2016-Feb-03 15:33N 52°41' E 004°29'9 9.1
2016-Feb-03 14:33N 52°32' E 004°30'5 5.3
2016-Feb-03 13:33N 52°28' E 004°36'1 1.1
2016-Feb-03 12:33N 52°28' E 004°38'1 1.3
2016-Feb-03 11:33N 52°28' E 004°40'0 0.0
2016-Feb-03 10:33N 52°28' E 004°40'0 0.0
2016-Feb-03 09:33N 52°28' E 004°40'0 0.0
2016-Feb-03 08:33N 52°28' E 004°40'0 0.0
2016-Feb-03 07:33N 52°28' E 004°40'0 0.0
2016-Feb-03 06:33N 52°28' E 004°40'0 0.0
2016-Feb-03 05:33N 52°28' E 004°40'0 0.0
2016-Feb-03 04:33N 52°28' E 004°40'0 0.0
2016-Feb-03 03:33N 52°28' E 004°40'0 0.0
2016-Feb-03 02:33N 52°28' E 004°40'0 0.0
2016-Feb-03 01:33N 52°28' E 004°40'0 0.0
2016-Feb-03 00:33N 52°28' E 004°40'0 0.0
2016-Feb-02 23:33N 52°28' E 004°40'0 0.0
2016-Feb-02 22:33N 52°28' E 004°40'0 0.0
2016-Feb-02 21:33N 52°28' E 004°40'0 0.0
2016-Feb-02 20:33N 52°28' E 004°40'0 0.0
2016-Feb-02 19:33N 52°28' E 004°40'0 0.0
2016-Feb-02 18:33N 52°28' E 004°40'0 0.0
2016-Feb-02 17:33N 52°28' E 004°40'0 0.0
2016-Feb-02 16:33N 52°28' E 004°40'0 0.0
2016-Feb-02 15:33N 52°28' E 004°40'0 0.0
2016-Feb-02 14:33N 52°28' E 004°40'0 0.0
2016-Feb-02 13:33N 52°28' E 004°40'0 0.0
2016-Feb-02 12:33N 52°28' E 004°40'0 0.0
2016-Feb-02 11:33N 52°28' E 004°40'0 0.0
2016-Feb-02 10:33N 52°28' E 004°40'0 0.0
2016-Feb-02 09:33N 52°28' E 004°40'0 0.0
2016-Feb-02 08:33N 52°28' E 004°40'0 0.0
2016-Feb-02 07:33N 52°28' E 004°40'0 0.0
2016-Feb-02 06:33N 52°28' E 004°40'0 0.0
2016-Feb-02 05:33N 52°28' E 004°40'0 0.0
2016-Feb-02 04:33N 52°28' E 004°40'0 0.0
2016-Feb-02 03:33N 52°28' E 004°40'0 0.0
2016-Feb-02 02:33N 52°28' E 004°40'0 0.0
2016-Feb-02 01:33N 52°28' E 004°40'0 0.0
2016-Feb-02 00:33N 52°28' E 004°40'0 0.0
2016-Feb-01 23:33N 52°28' E 004°40'0 0.0
2016-Feb-01 22:33N 52°28' E 004°40'0 0.0
2016-Feb-01 21:33N 52°28' E 004°40'0 0.0
2016-Feb-01 20:33N 52°28' E 004°40'0 0.0
2016-Feb-01 19:33N 52°28' E 004°40'0 0.0
2016-Feb-01 18:33N 52°28' E 004°40'0 0.0
2016-Feb-01 17:33N 52°28' E 004°40'0 0.0
2016-Feb-01 16:33N 52°28' E 004°40'0 0.3
2016-Feb-01 15:33N 52°28' E 004°40'4 4.3
2016-Feb-01 14:33N 52°28' E 004°32'6 5.7
2016-Feb-01 13:33N 52°33' E 004°30'8 7.7
2016-Feb-01 12:32N 52°41' E 004°30'8 7.1
2016-Feb-01 11:28N 52°49' E 004°31'8 6.4
2016-Feb-01 10:12N 52°57' E 004°32'81 9.3
2016-Feb-01 01:26N 54°16' E 005°03'  

Dump ship's entire track history